createdAt,value
2022-09-06T00:01:58.509Z,100757.72
2022-09-06T00:12:00.283Z,100772.28
2022-09-06T00:22:02.178Z,100761.31
2022-09-06T00:32:04.153Z,100751.66
2022-09-06T00:42:10.906Z,100763.81
2022-09-06T00:52:15.451Z,100758.91
2022-09-06T01:02:17.183Z,100757.41
2022-09-06T01:12:54.007Z,100767.56
2022-09-06T01:23:01.611Z,100762.47
2022-09-06T01:33:31.636Z,100768.81
2022-09-06T01:43:38.089Z,100760.84
2022-09-06T01:54:04.130Z,100750.31
2022-09-06T02:04:48.495Z,100744.63
2022-09-06T02:15:07.252Z,100745.63
2022-09-06T02:25:27.634Z,100744.41
2022-09-06T02:35:30.943Z,100744.03
2022-09-06T02:45:32.803Z,100736.59
2022-09-06T02:55:34.833Z,100736.91
2022-09-06T03:05:36.890Z,100739.53
2022-09-06T03:15:39.634Z,100735.69
2022-09-06T03:25:43.287Z,100739.38
2022-09-06T03:35:54.473Z,100747.44
2022-09-06T03:45:57.924Z,100734.38
2022-09-06T03:56:00.129Z,100738.66
2022-09-06T04:06:02.329Z,100744.56
2022-09-06T04:16:07.911Z,100747.41
2022-09-06T04:26:11.001Z,100742.13
2022-09-06T04:36:13.020Z,100750.06
2022-09-06T04:46:19.369Z,100746.50
2022-09-06T04:56:24.164Z,100741.97
2022-09-06T05:06:27.355Z,100733.22
2022-09-06T05:16:29.225Z,100733.03
2022-09-06T05:26:31.028Z,100739.84
2022-09-06T05:36:33.337Z,100741.13
2022-09-06T05:46:35.003Z,100749.38
2022-09-06T05:56:36.646Z,100743.34
2022-09-06T06:06:38.241Z,100749.66
2022-09-06T06:16:40.025Z,100748.22
2022-09-06T06:26:41.812Z,100742.72
2022-09-06T06:36:44.439Z,100737.47
2022-09-06T06:46:46.307Z,100750.03
2022-09-06T06:56:47.963Z,100756.31
2022-09-06T07:17:12.629Z,100758.84
2022-09-06T07:37:36.035Z,100770.81
2022-09-06T07:58:01.438Z,100766.28
2022-09-06T08:18:30.977Z,100757.03
2022-09-06T08:28:32.674Z,100741.84
2022-09-06T08:38:34.816Z,100733.09
2022-09-06T08:48:40.001Z,100740.28
2022-09-06T08:58:50.956Z,100727.13
2022-09-06T09:09:08.512Z,100725.47
2022-09-06T09:19:11.251Z,100716.22
2022-09-06T09:29:14.771Z,100710.69
2022-09-06T09:39:17.204Z,100692.09
2022-09-06T09:49:25.301Z,100675.66
2022-09-06T09:59:34.180Z,100671.78
2022-09-06T10:09:42.767Z,100655.34
2022-09-06T10:19:46.434Z,100650.53
2022-09-06T10:30:06.724Z,100625.97
2022-09-06T10:40:17.354Z,100622.78
2022-09-06T10:50:19.520Z,100616.09
2022-09-06T11:00:22.025Z,100608.81
2022-09-06T11:10:30.132Z,100610.06
2022-09-06T11:20:57.283Z,100589.81
2022-09-06T11:30:59.843Z,100584.03
2022-09-06T11:41:05.584Z,100571.44
2022-09-06T11:51:11.266Z,100566.22
2022-09-06T12:01:13.234Z,100563.88
2022-09-06T12:11:46.494Z,100554.94
2022-09-06T12:21:54.465Z,100543.13
2022-09-06T12:32:06.322Z,100516.66
2022-09-06T12:42:13.457Z,100504.94
2022-09-06T12:52:19.628Z,100497.78
2022-09-06T13:02:35.190Z,100479.34
2022-09-06T13:12:45.555Z,100462.66
2022-09-06T13:22:50.903Z,100445.91
2022-09-06T13:32:52.649Z,100440.66
2022-09-06T13:43:01.144Z,100437.78
2022-09-06T13:53:03.744Z,100422.22
2022-09-06T14:03:05.541Z,100415.16
2022-09-06T14:13:07.404Z,100420.91
2022-09-06T14:23:10.758Z,100401.38
2022-09-06T14:33:12.526Z,100399.19
2022-09-06T14:43:15.229Z,100401.19
2022-09-06T14:53:38.982Z,100396.16
2022-09-06T15:03:43.050Z,100395.84
2022-09-06T15:13:44.817Z,100402.03
2022-09-06T15:23:46.746Z,100410.69
2022-09-06T15:33:51.353Z,100407.94
2022-09-06T15:43:56.890Z,100421.47
2022-09-06T15:53:59.786Z,100416.09
2022-09-06T16:04:06.748Z,100422.41
2022-09-06T16:14:12.703Z,100427.94
2022-09-06T16:24:14.737Z,100444.50
2022-09-06T16:34:21.605Z,100449.38
2022-09-06T16:44:23.255Z,100440.22
2022-09-06T16:54:25.015Z,100427.97
2022-09-06T17:04:27.708Z,100437.31
2022-09-06T17:14:34.143Z,100440.88
2022-09-06T17:24:37.950Z,100432.16
2022-09-06T17:34:41.328Z,100435.56
2022-09-06T17:45:09.417Z,100470.47
2022-09-06T17:55:17.312Z,100449.75
2022-09-06T18:15:54.509Z,100457.03
2022-09-06T18:25:58.614Z,100459.25
2022-09-06T18:36:07.047Z,100462.69
2022-09-06T18:46:13.181Z,100469.69
2022-09-06T18:56:22.530Z,100468.88
2022-09-06T19:06:25.132Z,100480.88
2022-09-06T19:16:29.329Z,100463.94
2022-09-06T19:26:40.181Z,100465.59
2022-09-06T19:36:43.891Z,100468.56
2022-09-06T19:46:51.792Z,100462.13
2022-09-06T19:57:00.953Z,100449.91
2022-09-06T20:07:04.336Z,100436.69
2022-09-06T20:17:32.328Z,100444.13
2022-09-06T20:27:31.503Z,100451.41
2022-09-06T20:37:33.504Z,100454.97
2022-09-06T20:47:35.491Z,100436.34
2022-09-06T20:57:38.503Z,100450.34
2022-09-06T21:07:46.633Z,100441.00
2022-09-06T21:17:49.638Z,100437.16
2022-09-06T21:27:55.801Z,100428.38
2022-09-06T21:37:57.850Z,100427.88
2022-09-06T21:48:07.908Z,100419.31
2022-09-06T21:58:11.248Z,100420.59
2022-09-06T22:08:17.362Z,100417.47
2022-09-06T22:18:19.570Z,100419.31
2022-09-06T22:28:21.472Z,100420.59
2022-09-06T22:38:23.288Z,100416.66
2022-09-06T22:48:25.028Z,100416.31
2022-09-06T22:58:29.709Z,100407.97
2022-09-06T23:08:36.009Z,100412.06
2022-09-06T23:18:39.067Z,100415.56
2022-09-06T23:28:42.108Z,100404.81
2022-09-06T23:38:48.134Z,100404.31
2022-09-06T23:48:49.871Z,100400.28
2022-09-06T23:58:51.546Z,100392.53
